sensor_id;sensor_type;location;lat;lon;timestamp;P1;durP1;ratioP1;P2;durP2;ratioP2
37955;SDS011;23776;51.592;7.180;2023-05-02T00:00:42;40.05;;;22.27;;
37955;SDS011;23776;51.592;7.180;2023-05-02T00:03:09;44.85;;;21.67;;
37955;SDS011;23776;51.592;7.180;2023-05-02T00:05:35;38.90;;;21.60;;
37955;SDS011;23776;51.592;7.180;2023-05-02T00:08:01;43.75;;;22.00;;
37955;SDS011;23776;51.592;7.180;2023-05-02T00:10:27;42.92;;;22.45;;
37955;SDS011;23776;51.592;7.180;2023-05-02T00:12:52;43.38;;;23.70;;
37955;SDS011;23776;51.592;7.180;2023-05-02T00:15:18;40.95;;;22.35;;
37955;SDS011;23776;51.592;7.180;2023-05-02T00:17:44;39.10;;;21.40;;
37955;SDS011;23776;51.592;7.180;2023-05-02T00:20:10;40.28;;;22.13;;
37955;SDS011;23776;51.592;7.180;2023-05-02T00:22:36;41.33;;;21.38;;
37955;SDS011;23776;51.592;7.180;2023-05-02T00:25:02;42.33;;;22.75;;
37955;SDS011;23776;51.592;7.180;2023-05-02T00:27:29;38.63;;;20.77;;
37955;SDS011;23776;51.592;7.180;2023-05-02T00:29:56;40.47;;;22.20;;
37955;SDS011;23776;51.592;7.180;2023-05-02T00:32:23;42.85;;;23.05;;
37955;SDS011;23776;51.592;7.180;2023-05-02T00:34:49;40.13;;;22.95;;
37955;SDS011;23776;51.592;7.180;2023-05-02T00:37:15;50.78;;;23.92;;
37955;SDS011;23776;51.592;7.180;2023-05-02T00:39:40;45.75;;;22.85;;
37955;SDS011;23776;51.592;7.180;2023-05-02T00:42:06;45.80;;;24.33;;
37955;SDS011;23776;51.592;7.180;2023-05-02T00:44:32;49.30;;;25.67;;
37955;SDS011;23776;51.592;7.180;2023-05-02T00:46:57;57.28;;;27.52;;
37955;SDS011;23776;51.592;7.180;2023-05-02T00:49:25;59.13;;;29.67;;
37955;SDS011;23776;51.592;7.180;2023-05-02T00:51:52;53.42;;;27.17;;
37955;SDS011;23776;51.592;7.180;2023-05-02T00:54:18;60.08;;;26.88;;
37955;SDS011;23776;51.592;7.180;2023-05-02T00:56:44;62.72;;;28.83;;
37955;SDS011;23776;51.592;7.180;2023-05-02T00:59:10;63.13;;;30.27;;
37955;SDS011;23776;51.592;7.180;2023-05-02T01:04:30;60.67;;;28.67;;
37955;SDS011;23776;51.592;7.180;2023-05-02T01:13:39;59.58;;;30.55;;
37955;SDS011;23776;51.592;7.180;2023-05-02T01:16:00;58.55;;;28.13;;
37955;SDS011;23776;51.592;7.180;2023-05-02T01:18:29;67.20;;;29.35;;
37955;SDS011;23776;51.592;7.180;2023-05-02T01:20:59;68.45;;;30.65;;
37955;SDS011;23776;51.592;7.180;2023-05-02T01:29:44;65.88;;;31.65;;
37955;SDS011;23776;51.592;7.180;2023-05-02T01:32:12;70.18;;;32.55;;
37955;SDS011;23776;51.592;7.180;2023-05-02T01:34:40;69.60;;;32.45;;
37955;SDS011;23776;51.592;7.180;2023-05-02T01:37:10;70.28;;;34.05;;
37955;SDS011;23776;51.592;7.180;2023-05-02T01:39:37;66.07;;;32.05;;
37955;SDS011;23776;51.592;7.180;2023-05-02T01:42:05;72.50;;;32.22;;
37955;SDS011;23776;51.592;7.180;2023-05-02T01:44:30;70.68;;;33.03;;
37955;SDS011;23776;51.592;7.180;2023-05-02T01:46:58;70.32;;;30.17;;
37955;SDS011;23776;51.592;7.180;2023-05-02T01:49:26;73.03;;;34.03;;
37955;SDS011;23776;51.592;7.180;2023-05-02T01:51:55;74.75;;;34.65;;
37955;SDS011;23776;51.592;7.180;2023-05-02T01:54:24;65.18;;;31.15;;
37955;SDS011;23776;51.592;7.180;2023-05-02T01:56:51;68.13;;;32.25;;
37955;SDS011;23776;51.592;7.180;2023-05-02T01:59:17;64.57;;;30.42;;
37955;SDS011;23776;51.592;7.180;2023-05-02T02:01:44;71.53;;;30.58;;
37955;SDS011;23776;51.592;7.180;2023-05-02T02:04:11;62.10;;;29.45;;
37955;SDS011;23776;51.592;7.180;2023-05-02T02:06:39;68.95;;;30.05;;
37955;SDS011;23776;51.592;7.180;2023-05-02T02:09:08;65.30;;;29.40;;
37955;SDS011;23776;51.592;7.180;2023-05-02T02:11:45;61.63;;;28.90;;
37955;SDS011;23776;51.592;7.180;2023-05-02T02:14:17;62.25;;;28.90;;
37955;SDS011;23776;51.592;7.180;2023-05-02T02:16:45;61.88;;;26.67;;
37955;SDS011;23776;51.592;7.180;2023-05-02T02:19:12;62.97;;;26.90;;
37955;SDS011;23776;51.592;7.180;2023-05-02T02:21:40;67.25;;;29.48;;
37955;SDS011;23776;51.592;7.180;2023-05-02T02:24:07;56.03;;;24.85;;
37955;SDS011;23776;51.592;7.180;2023-05-02T02:26:33;57.20;;;26.02;;
37955;SDS011;23776;51.592;7.180;2023-05-02T02:29:00;56.13;;;25.45;;
37955;SDS011;23776;51.592;7.180;2023-05-02T02:31:33;60.45;;;24.80;;
37955;SDS011;23776;51.592;7.180;2023-05-02T02:33:59;54.33;;;24.00;;
37955;SDS011;23776;51.592;7.180;2023-05-02T02:36:38;53.72;;;23.88;;
37955;SDS011;23776;51.592;7.180;2023-05-02T02:39:16;61.63;;;24.85;;
37955;SDS011;23776;51.592;7.180;2023-05-02T02:44:29;54.67;;;23.08;;
37955;SDS011;23776;51.592;7.180;2023-05-02T02:47:04;50.88;;;21.98;;
37955;SDS011;23776;51.592;7.180;2023-05-02T02:49:48;52.95;;;23.00;;
37955;SDS011;23776;51.592;7.180;2023-05-02T02:52:31;44.92;;;20.08;;
37955;SDS011;23776;51.592;7.180;2023-05-02T03:00:41;44.75;;;20.17;;
37955;SDS011;23776;51.592;7.180;2023-05-02T03:03:08;40.85;;;18.80;;
37955;SDS011;23776;51.592;7.180;2023-05-02T03:05:34;41.40;;;18.00;;
37955;SDS011;23776;51.592;7.180;2023-05-02T03:08:00;42.88;;;19.67;;
37955;SDS011;23776;51.592;7.180;2023-05-02T03:10:25;44.00;;;17.83;;
37955;SDS011;23776;51.592;7.180;2023-05-02T03:12:51;45.72;;;18.17;;
37955;SDS011;23776;51.592;7.180;2023-05-02T03:17:50;41.40;;;17.27;;
37955;SDS011;23776;51.592;7.180;2023-05-02T03:20:16;34.42;;;16.23;;
37955;SDS011;23776;51.592;7.180;2023-05-02T03:22:42;42.22;;;16.52;;
37955;SDS011;23776;51.592;7.180;2023-05-02T03:25:07;39.85;;;17.02;;
37955;SDS011;23776;51.592;7.180;2023-05-02T03:27:33;42.78;;;16.30;;
37955;SDS011;23776;51.592;7.180;2023-05-02T03:29:59;41.83;;;16.40;;
37955;SDS011;23776;51.592;7.180;2023-05-02T03:32:25;40.17;;;17.13;;
37955;SDS011;23776;51.592;7.180;2023-05-02T03:34:51;39.25;;;15.50;;
37955;SDS011;23776;51.592;7.180;2023-05-02T03:37:18;33.78;;;14.88;;
37955;SDS011;23776;51.592;7.180;2023-05-02T03:39:43;32.53;;;13.88;;
37955;SDS011;23776;51.592;7.180;2023-05-02T03:42:09;32.90;;;13.90;;
37955;SDS011;23776;51.592;7.180;2023-05-02T03:44:34;30.50;;;13.55;;
37955;SDS011;23776;51.592;7.180;2023-05-02T03:47:00;32.72;;;13.50;;
37955;SDS011;23776;51.592;7.180;2023-05-02T03:49:26;29.02;;;13.48;;
37955;SDS011;23776;51.592;7.180;2023-05-02T03:51:52;30.67;;;13.32;;
37955;SDS011;23776;51.592;7.180;2023-05-02T03:54:17;31.08;;;13.27;;
37955;SDS011;23776;51.592;7.180;2023-05-02T03:56:43;32.38;;;13.48;;
37955;SDS011;23776;51.592;7.180;2023-05-02T03:59:08;28.90;;;12.68;;
37955;SDS011;23776;51.592;7.180;2023-05-02T04:01:34;26.30;;;12.82;;
37955;SDS011;23776;51.592;7.180;2023-05-02T04:04:00;33.83;;;12.27;;
37955;SDS011;23776;51.592;7.180;2023-05-02T04:06:25;35.08;;;13.70;;
37955;SDS011;23776;51.592;7.180;2023-05-02T04:08:51;29.92;;;13.85;;
37955;SDS011;23776;51.592;7.180;2023-05-02T04:11:16;25.33;;;11.75;;
37955;SDS011;23776;51.592;7.180;2023-05-02T04:13:42;29.48;;;14.18;;
37955;SDS011;23776;51.592;7.180;2023-05-02T04:16:08;31.38;;;12.55;;
37955;SDS011;23776;51.592;7.180;2023-05-02T04:18:33;31.92;;;12.90;;
37955;SDS011;23776;51.592;7.180;2023-05-02T04:20:59;35.60;;;14.05;;
37955;SDS011;23776;51.592;7.180;2023-05-02T04:23:25;33.58;;;13.05;;
37955;SDS011;23776;51.592;7.180;2023-05-02T04:25:51;33.42;;;13.50;;
37955;SDS011;23776;51.592;7.180;2023-05-02T04:28:17;37.83;;;13.40;;
37955;SDS011;23776;51.592;7.180;2023-05-02T04:30:44;36.55;;;14.32;;
37955;SDS011;23776;51.592;7.180;2023-05-02T04:33:10;39.00;;;13.68;;
37955;SDS011;23776;51.592;7.180;2023-05-02T04:35:38;41.97;;;14.20;;
37955;SDS011;23776;51.592;7.180;2023-05-02T04:38:04;33.25;;;14.77;;
37955;SDS011;23776;51.592;7.180;2023-05-02T04:40:31;35.03;;;15.15;;
37955;SDS011;23776;51.592;7.180;2023-05-02T04:42:57;38.15;;;16.02;;
37955;SDS011;23776;51.592;7.180;2023-05-02T04:45:22;36.47;;;13.52;;
37955;SDS011;23776;51.592;7.180;2023-05-02T04:47:49;34.10;;;13.18;;
37955;SDS011;23776;51.592;7.180;2023-05-02T04:50:15;37.28;;;14.65;;
37955;SDS011;23776;51.592;7.180;2023-05-02T04:52:40;35.85;;;13.93;;
37955;SDS011;23776;51.592;7.180;2023-05-02T04:55:06;27.40;;;13.10;;
37955;SDS011;23776;51.592;7.180;2023-05-02T04:57:32;32.95;;;13.57;;
37955;SDS011;23776;51.592;7.180;2023-05-02T04:59:57;35.80;;;13.85;;
37955;SDS011;23776;51.592;7.180;2023-05-02T05:02:23;30.77;;;12.63;;
37955;SDS011;23776;51.592;7.180;2023-05-02T05:04:50;28.63;;;11.43;;
37955;SDS011;23776;51.592;7.180;2023-05-02T05:07:16;22.35;;;9.60;;
37955;SDS011;23776;51.592;7.180;2023-05-02T05:09:41;24.23;;;9.63;;
37955;SDS011;23776;51.592;7.180;2023-05-02T05:12:07;23.17;;;9.82;;
37955;SDS011;23776;51.592;7.180;2023-05-02T05:14:32;22.38;;;8.90;;
37955;SDS011;23776;51.592;7.180;2023-05-02T05:16:58;16.80;;;7.80;;
37955;SDS011;23776;51.592;7.180;2023-05-02T05:19:24;18.13;;;7.97;;
37955;SDS011;23776;51.592;7.180;2023-05-02T05:21:50;13.65;;;6.70;;
37955;SDS011;23776;51.592;7.180;2023-05-02T05:24:16;16.30;;;8.27;;
37955;SDS011;23776;51.592;7.180;2023-05-02T05:26:41;21.30;;;7.18;;
37955;SDS011;23776;51.592;7.180;2023-05-02T05:29:07;17.63;;;7.18;;
37955;SDS011;23776;51.592;7.180;2023-05-02T05:31:33;10.75;;;6.85;;
37955;SDS011;23776;51.592;7.180;2023-05-02T05:33:58;11.77;;;6.90;;
37955;SDS011;23776;51.592;7.180;2023-05-02T05:36:25;15.75;;;8.20;;
37955;SDS011;23776;51.592;7.180;2023-05-02T05:38:51;14.73;;;8.32;;
37955;SDS011;23776;51.592;7.180;2023-05-02T05:41:17;16.65;;;7.82;;
37955;SDS011;23776;51.592;7.180;2023-05-02T05:43:43;19.73;;;8.48;;
37955;SDS011;23776;51.592;7.180;2023-05-02T05:46:08;20.98;;;9.32;;
37955;SDS011;23776;51.592;7.180;2023-05-02T05:48:34;10.48;;;6.75;;
37955;SDS011;23776;51.592;7.180;2023-05-02T05:51:03;19.33;;;8.23;;
37955;SDS011;23776;51.592;7.180;2023-05-02T05:53:29;15.48;;;6.85;;
37955;SDS011;23776;51.592;7.180;2023-05-02T05:55:55;17.92;;;6.55;;
37955;SDS011;23776;51.592;7.180;2023-05-02T05:58:21;16.33;;;6.60;;
37955;SDS011;23776;51.592;7.180;2023-05-02T06:00:47;9.75;;;5.75;;
37955;SDS011;23776;51.592;7.180;2023-05-02T06:03:13;13.02;;;5.82;;
37955;SDS011;23776;51.592;7.180;2023-05-02T06:05:39;11.50;;;6.45;;
37955;SDS011;23776;51.592;7.180;2023-05-02T06:08:04;12.98;;;6.28;;
37955;SDS011;23776;51.592;7.180;2023-05-02T06:10:30;22.83;;;8.45;;
37955;SDS011;23776;51.592;7.180;2023-05-02T06:12:56;17.50;;;7.03;;
37955;SDS011;23776;51.592;7.180;2023-05-02T06:15:22;14.23;;;6.35;;
37955;SDS011;23776;51.592;7.180;2023-05-02T06:17:49;13.02;;;5.97;;
37955;SDS011;23776;51.592;7.180;2023-05-02T06:20:15;13.88;;;6.25;;
37955;SDS011;23776;51.592;7.180;2023-05-02T06:22:41;8.57;;;5.28;;
37955;SDS011;23776;51.592;7.180;2023-05-02T06:25:07;20.83;;;6.40;;
37955;SDS011;23776;51.592;7.180;2023-05-02T06:27:33;13.48;;;5.40;;
37955;SDS011;23776;51.592;7.180;2023-05-02T06:29:59;17.98;;;7.38;;
37955;SDS011;23776;51.592;7.180;2023-05-02T06:32:24;16.27;;;5.53;;
37955;SDS011;23776;51.592;7.180;2023-05-02T06:34:54;15.88;;;5.55;;
37955;SDS011;23776;51.592;7.180;2023-05-02T06:37:20;15.10;;;4.93;;
37955;SDS011;23776;51.592;7.180;2023-05-02T06:39:46;12.23;;;5.82;;
37955;SDS011;23776;51.592;7.180;2023-05-02T06:42:11;11.73;;;5.70;;
37955;SDS011;23776;51.592;7.180;2023-05-02T06:44:37;13.27;;;5.20;;
37955;SDS011;23776;51.592;7.180;2023-05-02T06:47:05;13.82;;;5.32;;
37955;SDS011;23776;51.592;7.180;2023-05-02T06:49:31;13.70;;;5.68;;
37955;SDS011;23776;51.592;7.180;2023-05-02T06:51:57;11.35;;;4.50;;
37955;SDS011;23776;51.592;7.180;2023-05-02T06:54:22;14.40;;;5.15;;
37955;SDS011;23776;51.592;7.180;2023-05-02T06:56:48;10.60;;;4.38;;
37955;SDS011;23776;51.592;7.180;2023-05-02T06:59:14;13.77;;;4.75;;
37955;SDS011;23776;51.592;7.180;2023-05-02T07:01:42;12.57;;;5.20;;
37955;SDS011;23776;51.592;7.180;2023-05-02T07:04:07;15.23;;;4.63;;
37955;SDS011;23776;51.592;7.180;2023-05-02T07:06:33;8.88;;;4.18;;
37955;SDS011;23776;51.592;7.180;2023-05-02T07:08:59;11.18;;;4.10;;
37955;SDS011;23776;51.592;7.180;2023-05-02T07:11:24;12.20;;;3.95;;
37955;SDS011;23776;51.592;7.180;2023-05-02T07:13:51;10.68;;;3.53;;
37955;SDS011;23776;51.592;7.180;2023-05-02T07:16:17;6.20;;;3.35;;
37955;SDS011;23776;51.592;7.180;2023-05-02T07:18:43;5.75;;;3.72;;
37955;SDS011;23776;51.592;7.180;2023-05-02T07:21:09;6.68;;;3.15;;
37955;SDS011;23776;51.592;7.180;2023-05-02T07:23:36;5.30;;;2.67;;
37955;SDS011;23776;51.592;7.180;2023-05-02T07:26:02;4.68;;;2.53;;
37955;SDS011;23776;51.592;7.180;2023-05-02T07:28:28;3.30;;;2.15;;
37955;SDS011;23776;51.592;7.180;2023-05-02T07:30:54;3.28;;;1.88;;
37955;SDS011;23776;51.592;7.180;2023-05-02T07:33:19;3.83;;;2.10;;
37955;SDS011;23776;51.592;7.180;2023-05-02T07:35:45;6.20;;;2.58;;
37955;SDS011;23776;51.592;7.180;2023-05-02T07:38:10;5.60;;;2.10;;
37955;SDS011;23776;51.592;7.180;2023-05-02T07:40:36;7.65;;;2.40;;
37955;SDS011;23776;51.592;7.180;2023-05-02T07:43:02;3.22;;;2.30;;
37955;SDS011;23776;51.592;7.180;2023-05-02T07:45:27;3.83;;;2.10;;
37955;SDS011;23776;51.592;7.180;2023-05-02T07:47:53;5.55;;;2.20;;
37955;SDS011;23776;51.592;7.180;2023-05-02T07:50:19;9.70;;;2.63;;
37955;SDS011;23776;51.592;7.180;2023-05-02T07:52:44;4.03;;;2.42;;
37955;SDS011;23776;51.592;7.180;2023-05-02T07:55:10;5.93;;;2.58;;
37955;SDS011;23776;51.592;7.180;2023-05-02T07:57:36;7.82;;;3.35;;
37955;SDS011;23776;51.592;7.180;2023-05-02T08:00:02;7.90;;;3.15;;
37955;SDS011;23776;51.592;7.180;2023-05-02T08:02:28;6.68;;;2.72;;
37955;SDS011;23776;51.592;7.180;2023-05-02T08:04:54;8.75;;;3.10;;
37955;SDS011;23776;51.592;7.180;2023-05-02T08:07:20;6.90;;;2.80;;
37955;SDS011;23776;51.592;7.180;2023-05-02T08:09:45;6.78;;;2.83;;
37955;SDS011;23776;51.592;7.180;2023-05-02T08:12:11;12.77;;;3.17;;
37955;SDS011;23776;51.592;7.180;2023-05-02T08:14:36;8.63;;;3.47;;
37955;SDS011;23776;51.592;7.180;2023-05-02T08:17:02;7.28;;;3.22;;
37955;SDS011;23776;51.592;7.180;2023-05-02T08:19:27;8.93;;;3.67;;
37955;SDS011;23776;51.592;7.180;2023-05-02T08:21:53;16.13;;;4.10;;
37955;SDS011;23776;51.592;7.180;2023-05-02T08:24:19;10.75;;;4.22;;
37955;SDS011;23776;51.592;7.180;2023-05-02T08:26:45;10.32;;;3.75;;
37955;SDS011;23776;51.592;7.180;2023-05-02T08:29:11;13.07;;;4.32;;
37955;SDS011;23776;51.592;7.180;2023-05-02T08:31:37;10.90;;;4.30;;
37955;SDS011;23776;51.592;7.180;2023-05-02T08:34:04;9.30;;;3.67;;
37955;SDS011;23776;51.592;7.180;2023-05-02T08:36:30;13.50;;;3.88;;
37955;SDS011;23776;51.592;7.180;2023-05-02T08:38:56;13.68;;;3.92;;
37955;SDS011;23776;51.592;7.180;2023-05-02T08:41:21;7.97;;;3.78;;
37955;SDS011;23776;51.592;7.180;2023-05-02T08:43:48;9.75;;;4.43;;
37955;SDS011;23776;51.592;7.180;2023-05-02T08:46:14;11.35;;;4.28;;
37955;SDS011;23776;51.592;7.180;2023-05-02T08:48:41;12.18;;;4.47;;
37955;SDS011;23776;51.592;7.180;2023-05-02T08:51:10;15.23;;;4.07;;
37955;SDS011;23776;51.592;7.180;2023-05-02T08:53:38;12.93;;;4.53;;
37955;SDS011;23776;51.592;7.180;2023-05-02T08:56:07;9.23;;;3.67;;
37955;SDS011;23776;51.592;7.180;2023-05-02T08:58:34;11.07;;;3.55;;
37955;SDS011;23776;51.592;7.180;2023-05-02T09:01:02;7.15;;;3.17;;
37955;SDS011;23776;51.592;7.180;2023-05-02T09:03:33;13.32;;;3.95;;
37955;SDS011;23776;51.592;7.180;2023-05-02T09:06:07;9.57;;;3.53;;
37955;SDS011;23776;51.592;7.180;2023-05-02T09:11:03;12.25;;;3.58;;
37955;SDS011;23776;51.592;7.180;2023-05-02T09:13:43;13.43;;;3.08;;
37955;SDS011;23776;51.592;7.180;2023-05-02T09:16:16;15.07;;;3.35;;
37955;SDS011;23776;51.592;7.180;2023-05-02T09:18:47;8.77;;;2.97;;
37955;SDS011;23776;51.592;7.180;2023-05-02T09:21:14;14.50;;;2.75;;
37955;SDS011;23776;51.592;7.180;2023-05-02T09:23:45;11.52;;;3.15;;
37955;SDS011;23776;51.592;7.180;2023-05-02T09:26:13;13.85;;;3.33;;
37955;SDS011;23776;51.592;7.180;2023-05-02T09:28:44;7.35;;;2.47;;
37955;SDS011;23776;51.592;7.180;2023-05-02T09:31:12;8.38;;;3.13;;
37955;SDS011;23776;51.592;7.180;2023-05-02T09:33:39;10.20;;;2.95;;
37955;SDS011;23776;51.592;7.180;2023-05-02T09:36:06;9.07;;;3.10;;
37955;SDS011;23776;51.592;7.180;2023-05-02T09:38:32;12.32;;;2.92;;
37955;SDS011;23776;51.592;7.180;2023-05-02T09:40:59;11.50;;;2.53;;
37955;SDS011;23776;51.592;7.180;2023-05-02T09:43:27;9.45;;;2.55;;
37955;SDS011;23776;51.592;7.180;2023-05-02T09:45:55;10.95;;;2.97;;
37955;SDS011;23776;51.592;7.180;2023-05-02T09:48:21;13.88;;;3.17;;
37955;SDS011;23776;51.592;7.180;2023-05-02T09:50:47;7.82;;;3.03;;
37955;SDS011;23776;51.592;7.180;2023-05-02T09:53:12;11.68;;;3.53;;
37955;SDS011;23776;51.592;7.180;2023-05-02T09:55:38;11.77;;;3.70;;
37955;SDS011;23776;51.592;7.180;2023-05-02T09:58:04;12.20;;;3.50;;
37955;SDS011;23776;51.592;7.180;2023-05-02T10:03:05;9.73;;;3.22;;
37955;SDS011;23776;51.592;7.180;2023-05-02T10:05:32;10.45;;;2.65;;
37955;SDS011;23776;51.592;7.180;2023-05-02T10:08:05;12.48;;;3.22;;
37955;SDS011;23776;51.592;7.180;2023-05-02T10:10:32;12.10;;;2.70;;
37955;SDS011;23776;51.592;7.180;2023-05-02T10:13:02;13.93;;;3.55;;
37955;SDS011;23776;51.592;7.180;2023-05-02T10:15:29;8.50;;;3.00;;
37955;SDS011;23776;51.592;7.180;2023-05-02T10:17:59;13.05;;;2.85;;
37955;SDS011;23776;51.592;7.180;2023-05-02T10:20:34;17.30;;;3.83;;
37955;SDS011;23776;51.592;7.180;2023-05-02T10:23:01;9.13;;;3.83;;
37955;SDS011;23776;51.592;7.180;2023-05-02T10:25:28;15.32;;;3.38;;
37955;SDS011;23776;51.592;7.180;2023-05-02T10:27:55;11.38;;;3.20;;
37955;SDS011;23776;51.592;7.180;2023-05-02T10:30:24;14.13;;;3.60;;
37955;SDS011;23776;51.592;7.180;2023-05-02T10:32:50;7.50;;;2.88;;
37955;SDS011;23776;51.592;7.180;2023-05-02T10:35:18;10.00;;;3.63;;
37955;SDS011;23776;51.592;7.180;2023-05-02T10:37:44;11.55;;;2.53;;
37955;SDS011;23776;51.592;7.180;2023-05-02T10:40:12;10.18;;;3.53;;
37955;SDS011;23776;51.592;7.180;2023-05-02T10:42:39;13.27;;;2.90;;
37955;SDS011;23776;51.592;7.180;2023-05-02T10:45:10;9.45;;;3.17;;
37955;SDS011;23776;51.592;7.180;2023-05-02T10:47:37;5.50;;;2.67;;
37955;SDS011;23776;51.592;7.180;2023-05-02T10:50:03;14.05;;;3.22;;
37955;SDS011;23776;51.592;7.180;2023-05-02T10:52:33;14.30;;;3.45;;
37955;SDS011;23776;51.592;7.180;2023-05-02T11:00:25;12.45;;;3.53;;
37955;SDS011;23776;51.592;7.180;2023-05-02T11:02:55;10.75;;;3.13;;
37955;SDS011;23776;51.592;7.180;2023-05-02T11:05:21;6.88;;;2.70;;
37955;SDS011;23776;51.592;7.180;2023-05-02T11:07:48;12.02;;;2.78;;
37955;SDS011;23776;51.592;7.180;2023-05-02T11:12:48;7.25;;;2.50;;
37955;SDS011;23776;51.592;7.180;2023-05-02T11:20:31;4.35;;;2.45;;
37955;SDS011;23776;51.592;7.180;2023-05-02T11:31:08;7.25;;;2.17;;
37955;SDS011;23776;51.592;7.180;2023-05-02T11:33:55;8.27;;;2.83;;
37955;SDS011;23776;51.592;7.180;2023-05-02T11:36:31;9.18;;;2.58;;
37955;SDS011;23776;51.592;7.180;2023-05-02T11:38:57;4.70;;;2.30;;
37955;SDS011;23776;51.592;7.180;2023-05-02T11:41:42;6.85;;;2.15;;
37955;SDS011;23776;51.592;7.180;2023-05-02T11:44:08;7.32;;;2.25;;
37955;SDS011;23776;51.592;7.180;2023-05-02T11:46:37;4.20;;;2.13;;
37955;SDS011;23776;51.592;7.180;2023-05-02T11:49:04;7.85;;;2.40;;
37955;SDS011;23776;51.592;7.180;2023-05-02T11:51:31;7.18;;;2.38;;
37955;SDS011;23776;51.592;7.180;2023-05-02T11:53:57;7.50;;;3.03;;
37955;SDS011;23776;51.592;7.180;2023-05-02T11:56:23;7.43;;;2.70;;
37955;SDS011;23776;51.592;7.180;2023-05-02T11:59:00;9.38;;;2.97;;
37955;SDS011;23776;51.592;7.180;2023-05-02T12:01:27;10.20;;;2.83;;
37955;SDS011;23776;51.592;7.180;2023-05-02T12:04:06;6.93;;;2.67;;
37955;SDS011;23776;51.592;7.180;2023-05-02T12:06:32;5.63;;;2.83;;
37955;SDS011;23776;51.592;7.180;2023-05-02T12:09:09;5.50;;;2.70;;
37955;SDS011;23776;51.592;7.180;2023-05-02T12:11:37;7.93;;;3.03;;
37955;SDS011;23776;51.592;7.180;2023-05-02T12:14:03;6.28;;;3.05;;
37955;SDS011;23776;51.592;7.180;2023-05-02T12:16:30;10.20;;;3.53;;
37955;SDS011;23776;51.592;7.180;2023-05-02T12:18:56;7.82;;;2.45;;
37955;SDS011;23776;51.592;7.180;2023-05-02T12:21:24;11.00;;;2.65;;
37955;SDS011;23776;51.592;7.180;2023-05-02T12:23:50;7.13;;;2.67;;
37955;SDS011;23776;51.592;7.180;2023-05-02T12:26:17;8.60;;;2.80;;
37955;SDS011;23776;51.592;7.180;2023-05-02T12:28:52;8.88;;;3.30;;
37955;SDS011;23776;51.592;7.180;2023-05-02T12:31:18;10.23;;;2.97;;
37955;SDS011;23776;51.592;7.180;2023-05-02T12:33:44;7.53;;;3.42;;
37955;SDS011;23776;51.592;7.180;2023-05-02T12:36:12;13.90;;;3.60;;
37955;SDS011;23776;51.592;7.180;2023-05-02T12:38:38;6.53;;;3.30;;
37955;SDS011;23776;51.592;7.180;2023-05-02T12:41:03;9.95;;;3.58;;
37955;SDS011;23776;51.592;7.180;2023-05-02T12:43:41;8.85;;;3.63;;
37955;SDS011;23776;51.592;7.180;2023-05-02T12:46:11;8.57;;;2.88;;
37955;SDS011;23776;51.592;7.180;2023-05-02T12:48:36;5.15;;;2.58;;
37955;SDS011;23776;51.592;7.180;2023-05-02T12:51:02;5.40;;;2.97;;
37955;SDS011;23776;51.592;7.180;2023-05-02T12:53:37;12.23;;;2.85;;
37955;SDS011;23776;51.592;7.180;2023-05-02T12:56:08;14.90;;;3.60;;
37955;SDS011;23776;51.592;7.180;2023-05-02T12:58:44;4.68;;;2.63;;
37955;SDS011;23776;51.592;7.180;2023-05-02T13:01:12;9.32;;;2.78;;
37955;SDS011;23776;51.592;7.180;2023-05-02T13:03:38;5.40;;;2.90;;
37955;SDS011;23776;51.592;7.180;2023-05-02T13:06:05;9.85;;;3.30;;
37955;SDS011;23776;51.592;7.180;2023-05-02T13:08:31;17.75;;;3.38;;
37955;SDS011;23776;51.592;7.180;2023-05-02T13:10:58;8.40;;;3.10;;
37955;SDS011;23776;51.592;7.180;2023-05-02T13:13:24;11.05;;;3.25;;
37955;SDS011;23776;51.592;7.180;2023-05-02T13:15:49;7.15;;;3.50;;
37955;SDS011;23776;51.592;7.180;2023-05-02T13:18:15;10.75;;;3.70;;
37955;SDS011;23776;51.592;7.180;2023-05-02T13:20:40;9.07;;;3.70;;
37955;SDS011;23776;51.592;7.180;2023-05-02T13:23:06;12.63;;;3.85;;
37955;SDS011;23776;51.592;7.180;2023-05-02T13:25:31;12.93;;;3.40;;
37955;SDS011;23776;51.592;7.180;2023-05-02T13:27:57;11.05;;;3.55;;
37955;SDS011;23776;51.592;7.180;2023-05-02T13:30:22;9.02;;;3.28;;
37955;SDS011;23776;51.592;7.180;2023-05-02T13:32:48;6.20;;;2.78;;
37955;SDS011;23776;51.592;7.180;2023-05-02T13:35:14;7.38;;;3.13;;
37955;SDS011;23776;51.592;7.180;2023-05-02T13:37:40;11.18;;;3.50;;
37955;SDS011;23776;51.592;7.180;2023-05-02T13:40:06;8.13;;;3.30;;
37955;SDS011;23776;51.592;7.180;2023-05-02T13:42:32;9.52;;;2.90;;
37955;SDS011;23776;51.592;7.180;2023-05-02T13:44:57;5.97;;;2.80;;
37955;SDS011;23776;51.592;7.180;2023-05-02T13:47:23;8.68;;;3.20;;
37955;SDS011;23776;51.592;7.180;2023-05-02T13:49:49;9.23;;;3.08;;
37955;SDS011;23776;51.592;7.180;2023-05-02T13:52:15;14.45;;;3.95;;
37955;SDS011;23776;51.592;7.180;2023-05-02T13:54:40;12.38;;;3.17;;
37955;SDS011;23776;51.592;7.180;2023-05-02T13:57:06;9.63;;;3.22;;
37955;SDS011;23776;51.592;7.180;2023-05-02T13:59:32;13.43;;;4.32;;
37955;SDS011;23776;51.592;7.180;2023-05-02T14:01:57;10.90;;;3.50;;
37955;SDS011;23776;51.592;7.180;2023-05-02T14:04:23;11.27;;;3.33;;
37955;SDS011;23776;51.592;7.180;2023-05-02T14:06:48;9.07;;;3.50;;
37955;SDS011;23776;51.592;7.180;2023-05-02T14:09:14;12.23;;;3.72;;
37955;SDS011;23776;51.592;7.180;2023-05-02T14:11:40;8.73;;;3.80;;
37955;SDS011;23776;51.592;7.180;2023-05-02T14:14:08;13.48;;;3.75;;
37955;SDS011;23776;51.592;7.180;2023-05-02T14:16:36;14.85;;;3.80;;
37955;SDS011;23776;51.592;7.180;2023-05-02T14:19:02;12.02;;;3.72;;
37955;SDS011;23776;51.592;7.180;2023-05-02T14:21:27;5.07;;;3.47;;
37955;SDS011;23776;51.592;7.180;2023-05-02T14:23:53;15.02;;;3.70;;
37955;SDS011;23776;51.592;7.180;2023-05-02T14:26:18;13.25;;;3.67;;
37955;SDS011;23776;51.592;7.180;2023-05-02T14:28:44;16.95;;;3.80;;
37955;SDS011;23776;51.592;7.180;2023-05-02T14:31:10;7.72;;;3.40;;
37955;SDS011;23776;51.592;7.180;2023-05-02T14:33:36;13.27;;;4.00;;
37955;SDS011;23776;51.592;7.180;2023-05-02T14:36:02;8.07;;;4.00;;
37955;SDS011;23776;51.592;7.180;2023-05-02T14:38:28;14.07;;;4.00;;
37955;SDS011;23776;51.592;7.180;2023-05-02T14:40:53;16.08;;;3.70;;
37955;SDS011;23776;51.592;7.180;2023-05-02T14:43:19;9.23;;;3.78;;
37955;SDS011;23776;51.592;7.180;2023-05-02T14:45:45;13.27;;;4.53;;
37955;SDS011;23776;51.592;7.180;2023-05-02T14:48:11;12.05;;;4.75;;
37955;SDS011;23776;51.592;7.180;2023-05-02T14:50:38;8.48;;;3.80;;
37955;SDS011;23776;51.592;7.180;2023-05-02T14:53:04;12.68;;;4.55;;
37955;SDS011;23776;51.592;7.180;2023-05-02T14:55:34;12.20;;;4.15;;
37955;SDS011;23776;51.592;7.180;2023-05-02T14:58:00;9.80;;;3.85;;
37955;SDS011;23776;51.592;7.180;2023-05-02T15:00:26;8.80;;;4.40;;
37955;SDS011;23776;51.592;7.180;2023-05-02T15:02:52;9.82;;;4.53;;
37955;SDS011;23776;51.592;7.180;2023-05-02T15:05:17;7.28;;;5.10;;
37955;SDS011;23776;51.592;7.180;2023-05-02T15:07:43;11.88;;;3.80;;
37955;SDS011;23776;51.592;7.180;2023-05-02T15:10:09;11.73;;;3.53;;
37955;SDS011;23776;51.592;7.180;2023-05-02T15:12:34;13.38;;;3.70;;
37955;SDS011;23776;51.592;7.180;2023-05-02T15:15:00;11.05;;;4.18;;
37955;SDS011;23776;51.592;7.180;2023-05-02T15:17:25;14.10;;;4.50;;
37955;SDS011;23776;51.592;7.180;2023-05-02T15:19:51;15.05;;;3.67;;
37955;SDS011;23776;51.592;7.180;2023-05-02T15:22:16;7.55;;;3.60;;
37955;SDS011;23776;51.592;7.180;2023-05-02T15:24:42;9.10;;;4.10;;